sensor_id;sensor_type;location;lat;lon;timestamp;temperature;humidity
17170;DHT22;8700;48.222;16.342;2023-06-05T00:00:21;19.10;99.90
17170;DHT22;8700;48.222;16.342;2023-06-05T00:03:43;19.00;99.90
17170;DHT22;8700;48.222;16.342;2023-06-05T00:07:05;19.00;99.90
17170;DHT22;8700;48.222;16.342;2023-06-05T00:10:28;19.00;99.90
17170;DHT22;8700;48.222;16.342;2023-06-05T00:13:51;18.90;99.90
17170;DHT22;8700;48.222;16.342;2023-06-05T00:17:13;18.90;99.90
17170;DHT22;8700;48.222;16.342;2023-06-05T00:20:34;18.60;99.90
17170;DHT22;8700;48.222;16.342;2023-06-05T00:23:58;18.50;99.90
17170;DHT22;8700;48.222;16.342;2023-06-05T00:27:20;18.30;99.90
17170;DHT22;8700;48.222;16.342;2023-06-05T00:30:42;18.40;99.90
17170;DHT22;8700;48.222;16.342;2023-06-05T00:34:04;18.40;99.90
17170;DHT22;8700;48.222;16.342;2023-06-05T00:37:25;18.50;99.90
17170;DHT22;8700;48.222;16.342;2023-06-05T00:40:50;18.30;99.90
17170;DHT22;8700;48.222;16.342;2023-06-05T00:44:11;18.30;99.90
17170;DHT22;8700;48.222;16.342;2023-06-05T00:47:35;18.50;99.90
17170;DHT22;8700;48.222;16.342;2023-06-05T00:50:56;18.70;99.90
17170;DHT22;8700;48.222;16.342;2023-06-05T00:54:18;18.70;99.90
17170;DHT22;8700;48.222;16.342;2023-06-05T00:57:40;18.70;99.90
17170;DHT22;8700;48.222;16.342;2023-06-05T01:01:05;18.60;99.90
17170;DHT22;8700;48.222;16.342;2023-06-05T01:04:29;18.60;99.90
17170;DHT22;8700;48.222;16.342;2023-06-05T01:07:52;18.50;99.90
17170;DHT22;8700;48.222;16.342;2023-06-05T01:11:19;18.50;99.90
17170;DHT22;8700;48.222;16.342;2023-06-05T01:14:44;18.40;99.90
17170;DHT22;8700;48.222;16.342;2023-06-05T01:18:09;18.50;99.90
17170;DHT22;8700;48.222;16.342;2023-06-05T01:21:38;18.50;99.90
17170;DHT22;8700;48.222;16.342;2023-06-05T01:25:04;18.30;99.90
17170;DHT22;8700;48.222;16.342;2023-06-05T01:28:28;18.50;99.90
17170;DHT22;8700;48.222;16.342;2023-06-05T01:31:57;18.40;99.90
17170;DHT22;8700;48.222;16.342;2023-06-05T01:35:22;18.50;99.90
17170;DHT22;8700;48.222;16.342;2023-06-05T01:38:49;18.50;99.90
17170;DHT22;8700;48.222;16.342;2023-06-05T01:42:14;18.20;99.90
17170;DHT22;8700;48.222;16.342;2023-06-05T01:45:37;18.30;99.90
17170;DHT22;8700;48.222;16.342;2023-06-05T01:49:00;18.30;99.90
17170;DHT22;8700;48.222;16.342;2023-06-05T01:52:22;18.00;99.90
17170;DHT22;8700;48.222;16.342;2023-06-05T01:55:44;18.10;99.90
17170;DHT22;8700;48.222;16.342;2023-06-05T01:59:11;18.00;99.90
17170;DHT22;8700;48.222;16.342;2023-06-05T02:02:32;18.20;99.90
17170;DHT22;8700;48.222;16.342;2023-06-05T02:05:54;18.30;99.90
17170;DHT22;8700;48.222;16.342;2023-06-05T02:09:16;18.20;99.90
17170;DHT22;8700;48.222;16.342;2023-06-05T02:12:37;18.40;99.90
17170;DHT22;8700;48.222;16.342;2023-06-05T02:16:10;18.50;99.90
17170;DHT22;8700;48.222;16.342;2023-06-05T02:19:33;18.50;99.90
17170;DHT22;8700;48.222;16.342;2023-06-05T02:22:55;18.40;99.90
17170;DHT22;8700;48.222;16.342;2023-06-05T02:26:17;18.50;99.90
17170;DHT22;8700;48.222;16.342;2023-06-05T02:29:41;18.30;99.90
17170;DHT22;8700;48.222;16.342;2023-06-05T02:33:04;18.30;99.90
17170;DHT22;8700;48.222;16.342;2023-06-05T02:36:26;18.20;99.90
17170;DHT22;8700;48.222;16.342;2023-06-05T02:39:48;18.30;99.90
17170;DHT22;8700;48.222;16.342;2023-06-05T02:43:09;18.20;99.90
17170;DHT22;8700;48.222;16.342;2023-06-05T02:46:31;18.30;99.90
17170;DHT22;8700;48.222;16.342;2023-06-05T02:49:54;18.20;99.90
17170;DHT22;8700;48.222;16.342;2023-06-05T02:53:16;18.20;99.90
17170;DHT22;8700;48.222;16.342;2023-06-05T02:56:38;18.20;99.90
17170;DHT22;8700;48.222;16.342;2023-06-05T02:59:59;18.10;99.90
17170;DHT22;8700;48.222;16.342;2023-06-05T03:03:22;18.00;99.90
17170;DHT22;8700;48.222;16.342;2023-06-05T03:06:47;17.90;99.90
17170;DHT22;8700;48.222;16.342;2023-06-05T03:10:09;17.70;99.90
17170;DHT22;8700;48.222;16.342;2023-06-05T03:13:31;17.50;99.90
17170;DHT22;8700;48.222;16.342;2023-06-05T03:16:53;17.50;99.90
17170;DHT22;8700;48.222;16.342;2023-06-05T03:20:17;17.60;99.90
17170;DHT22;8700;48.222;16.342;2023-06-05T03:23:40;17.60;99.90
17170;DHT22;8700;48.222;16.342;2023-06-05T03:27:02;17.60;99.90
17170;DHT22;8700;48.222;16.342;2023-06-05T03:30:26;17.50;99.90
17170;DHT22;8700;48.222;16.342;2023-06-05T03:33:50;17.60;99.90
17170;DHT22;8700;48.222;16.342;2023-06-05T03:37:12;17.90;99.90
17170;DHT22;8700;48.222;16.342;2023-06-05T03:40:35;18.00;99.90
17170;DHT22;8700;48.222;16.342;2023-06-05T03:44:00;18.00;99.90
17170;DHT22;8700;48.222;16.342;2023-06-05T03:47:23;17.90;99.90
17170;DHT22;8700;48.222;16.342;2023-06-05T03:50:48;18.00;99.90
17170;DHT22;8700;48.222;16.342;2023-06-05T03:54:15;18.30;99.90
17170;DHT22;8700;48.222;16.342;2023-06-05T03:57:39;18.20;99.90
17170;DHT22;8700;48.222;16.342;2023-06-05T04:01:01;17.90;99.90
17170;DHT22;8700;48.222;16.342;2023-06-05T04:04:22;17.80;99.90
17170;DHT22;8700;48.222;16.342;2023-06-05T04:07:44;17.90;99.90
17170;DHT22;8700;48.222;16.342;2023-06-05T04:11:05;17.80;99.90
17170;DHT22;8700;48.222;16.342;2023-06-05T04:14:28;18.00;99.90
17170;DHT22;8700;48.222;16.342;2023-06-05T04:17:53;17.80;99.90
17170;DHT22;8700;48.222;16.342;2023-06-05T04:21:20;17.70;99.90
17170;DHT22;8700;48.222;16.342;2023-06-05T04:24:47;17.50;99.90
17170;DHT22;8700;48.222;16.342;2023-06-05T04:28:14;17.60;99.90
17170;DHT22;8700;48.222;16.342;2023-06-05T04:31:41;17.60;99.90
17170;DHT22;8700;48.222;16.342;2023-06-05T04:35:06;17.60;99.90
17170;DHT22;8700;48.222;16.342;2023-06-05T04:38:32;17.40;99.90
17170;DHT22;8700;48.222;16.342;2023-06-05T04:41:54;17.60;99.90
17170;DHT22;8700;48.222;16.342;2023-06-05T04:45:18;17.90;99.90
17170;DHT22;8700;48.222;16.342;2023-06-05T04:48:41;18.00;99.90
17170;DHT22;8700;48.222;16.342;2023-06-05T04:52:04;18.00;99.90
17170;DHT22;8700;48.222;16.342;2023-06-05T04:55:25;18.20;99.90
17170;DHT22;8700;48.222;16.342;2023-06-05T04:58:49;18.00;99.90
17170;DHT22;8700;48.222;16.342;2023-06-05T05:02:12;18.30;99.90
17170;DHT22;8700;48.222;16.342;2023-06-05T05:05:35;18.50;99.90
17170;DHT22;8700;48.222;16.342;2023-06-05T05:08:58;18.60;99.90
17170;DHT22;8700;48.222;16.342;2023-06-05T05:12:20;18.80;99.90
17170;DHT22;8700;48.222;16.342;2023-06-05T05:15:41;18.90;99.90
17170;DHT22;8700;48.222;16.342;2023-06-05T05:19:02;19.10;99.90
17170;DHT22;8700;48.222;16.342;2023-06-05T05:22:26;19.30;99.90
17170;DHT22;8700;48.222;16.342;2023-06-05T05:25:48;19.30;99.90
17170;DHT22;8700;48.222;16.342;2023-06-05T05:29:15;19.10;99.90
17170;DHT22;8700;48.222;16.342;2023-06-05T05:32:37;19.10;99.90
17170;DHT22;8700;48.222;16.342;2023-06-05T05:35:59;19.30;99.90
17170;DHT22;8700;48.222;16.342;2023-06-05T05:39:21;19.70;99.90
17170;DHT22;8700;48.222;16.342;2023-06-05T05:42:43;19.90;99.90
17170;DHT22;8700;48.222;16.342;2023-06-05T05:46:04;20.00;99.90
17170;DHT22;8700;48.222;16.342;2023-06-05T05:49:28;20.20;99.90
17170;DHT22;8700;48.222;16.342;2023-06-05T05:52:52;20.20;99.90
17170;DHT22;8700;48.222;16.342;2023-06-05T05:56:15;20.50;99.90
17170;DHT22;8700;48.222;16.342;2023-06-05T05:59:37;21.10;99.90
17170;DHT22;8700;48.222;16.342;2023-06-05T06:03:00;20.60;99.90
17170;DHT22;8700;48.222;16.342;2023-06-05T06:06:22;20.40;99.90
17170;DHT22;8700;48.222;16.342;2023-06-05T06:09:44;20.00;99.90
17170;DHT22;8700;48.222;16.342;2023-06-05T06:13:07;19.80;99.90
17170;DHT22;8700;48.222;16.342;2023-06-05T06:16:32;19.60;99.90
17170;DHT22;8700;48.222;16.342;2023-06-05T06:19:55;20.10;99.90
17170;DHT22;8700;48.222;16.342;2023-06-05T06:23:17;19.60;99.90
17170;DHT22;8700;48.222;16.342;2023-06-05T06:26:38;19.50;99.90
17170;DHT22;8700;48.222;16.342;2023-06-05T06:30:03;19.60;99.90
17170;DHT22;8700;48.222;16.342;2023-06-05T06:33:25;19.70;99.90
17170;DHT22;8700;48.222;16.342;2023-06-05T06:36:46;19.90;99.90
17170;DHT22;8700;48.222;16.342;2023-06-05T06:40:08;19.90;99.90
17170;DHT22;8700;48.222;16.342;2023-06-05T06:43:30;20.10;99.90
17170;DHT22;8700;48.222;16.342;2023-06-05T06:46:53;20.50;99.90
17170;DHT22;8700;48.222;16.342;2023-06-05T06:50:16;20.40;99.90
17170;DHT22;8700;48.222;16.342;2023-06-05T06:53:38;20.10;99.90
17170;DHT22;8700;48.222;16.342;2023-06-05T06:57:00;20.00;99.90
17170;DHT22;8700;48.222;16.342;2023-06-05T07:00:22;19.90;99.90
17170;DHT22;8700;48.222;16.342;2023-06-05T07:03:44;19.80;99.90
17170;DHT22;8700;48.222;16.342;2023-06-05T07:07:08;19.80;99.90
17170;DHT22;8700;48.222;16.342;2023-06-05T07:10:29;19.90;99.90
17170;DHT22;8700;48.222;16.342;2023-06-05T07:13:50;20.00;99.90
17170;DHT22;8700;48.222;16.342;2023-06-05T07:17:12;20.00;99.90
17170;DHT22;8700;48.222;16.342;2023-06-05T07:20:36;20.00;99.90
17170;DHT22;8700;48.222;16.342;2023-06-05T07:23:57;20.20;99.90
17170;DHT22;8700;48.222;16.342;2023-06-05T07:27:18;20.40;99.90
17170;DHT22;8700;48.222;16.342;2023-06-05T07:30:40;20.50;99.90
17170;DHT22;8700;48.222;16.342;2023-06-05T07:34:03;20.50;99.90
17170;DHT22;8700;48.222;16.342;2023-06-05T07:37:27;20.70;99.90
17170;DHT22;8700;48.222;16.342;2023-06-05T07:40:49;21.50;99.90
17170;DHT22;8700;48.222;16.342;2023-06-05T07:44:11;21.50;99.90
17170;DHT22;8700;48.222;16.342;2023-06-05T07:47:47;22.10;99.90
17170;DHT22;8700;48.222;16.342;2023-06-05T07:51:12;21.90;99.90
17170;DHT22;8700;48.222;16.342;2023-06-05T07:54:34;21.80;99.90
17170;DHT22;8700;48.222;16.342;2023-06-05T07:57:55;21.90;99.90
17170;DHT22;8700;48.222;16.342;2023-06-05T08:01:17;22.10;99.90
17170;DHT22;8700;48.222;16.342;2023-06-05T08:04:41;22.20;99.90
17170;DHT22;8700;48.222;16.342;2023-06-05T08:08:05;22.20;99.90
17170;DHT22;8700;48.222;16.342;2023-06-05T08:11:30;22.00;99.90
17170;DHT22;8700;48.222;16.342;2023-06-05T08:14:52;21.60;99.90
17170;DHT22;8700;48.222;16.342;2023-06-05T08:18:15;22.00;99.90
17170;DHT22;8700;48.222;16.342;2023-06-05T08:21:38;22.30;99.90
17170;DHT22;8700;48.222;16.342;2023-06-05T08:25:00;22.50;99.90
17170;DHT22;8700;48.222;16.342;2023-06-05T08:28:26;22.50;99.90
17170;DHT22;8700;48.222;16.342;2023-06-05T08:31:47;22.70;99.90
17170;DHT22;8700;48.222;16.342;2023-06-05T08:35:08;22.60;99.90
17170;DHT22;8700;48.222;16.342;2023-06-05T08:38:31;22.80;99.90
17170;DHT22;8700;48.222;16.342;2023-06-05T08:41:53;22.30;99.90
17170;DHT22;8700;48.222;16.342;2023-06-05T08:45:24;22.80;99.90
17170;DHT22;8700;48.222;16.342;2023-06-05T08:48:47;22.90;99.90
17170;DHT22;8700;48.222;16.342;2023-06-05T08:52:11;23.30;99.90
17170;DHT22;8700;48.222;16.342;2023-06-05T08:55:37;23.30;99.90
17170;DHT22;8700;48.222;16.342;2023-06-05T08:59:00;23.20;99.90
17170;DHT22;8700;48.222;16.342;2023-06-05T09:02:23;23.80;99.90
17170;DHT22;8700;48.222;16.342;2023-06-05T09:05:44;24.60;99.90
17170;DHT22;8700;48.222;16.342;2023-06-05T09:09:07;24.30;99.90
17170;DHT22;8700;48.222;16.342;2023-06-05T09:12:30;24.40;99.90
17170;DHT22;8700;48.222;16.342;2023-06-05T09:15:52;24.30;99.90
17170;DHT22;8700;48.222;16.342;2023-06-05T09:19:15;24.00;99.90
17170;DHT22;8700;48.222;16.342;2023-06-05T09:22:36;24.80;99.90
17170;DHT22;8700;48.222;16.342;2023-06-05T09:25:59;25.70;99.90
17170;DHT22;8700;48.222;16.342;2023-06-05T09:29:23;25.90;99.90
17170;DHT22;8700;48.222;16.342;2023-06-05T09:32:45;25.30;99.90
17170;DHT22;8700;48.222;16.342;2023-06-05T09:36:11;24.70;99.90
17170;DHT22;8700;48.222;16.342;2023-06-05T09:39:33;24.70;99.90
17170;DHT22;8700;48.222;16.342;2023-06-05T09:42:55;25.30;99.90
17170;DHT22;8700;48.222;16.342;2023-06-05T09:46:17;25.30;99.90
17170;DHT22;8700;48.222;16.342;2023-06-05T09:49:46;25.40;99.90
17170;DHT22;8700;48.222;16.342;2023-06-05T09:53:10;26.00;99.90
17170;DHT22;8700;48.222;16.342;2023-06-05T09:56:35;26.40;99.90
17170;DHT22;8700;48.222;16.342;2023-06-05T09:59:57;26.10;99.90
17170;DHT22;8700;48.222;16.342;2023-06-05T10:03:21;24.70;99.90
17170;DHT22;8700;48.222;16.342;2023-06-05T10:06:46;24.70;99.90
17170;DHT22;8700;48.222;16.342;2023-06-05T10:10:10;25.10;99.90
17170;DHT22;8700;48.222;16.342;2023-06-05T10:13:36;25.10;99.90
17170;DHT22;8700;48.222;16.342;2023-06-05T10:16:59;25.10;99.90
17170;DHT22;8700;48.222;16.342;2023-06-05T10:20:27;24.40;99.90
17170;DHT22;8700;48.222;16.342;2023-06-05T10:23:55;24.70;99.90
17170;DHT22;8700;48.222;16.342;2023-06-05T10:27:40;24.60;99.90
17170;DHT22;8700;48.222;16.342;2023-06-05T10:31:19;24.00;99.90
17170;DHT22;8700;48.222;16.342;2023-06-05T10:34:53;23.60;99.90
17170;DHT22;8700;48.222;16.342;2023-06-05T10:38:22;23.50;99.90
17170;DHT22;8700;48.222;16.342;2023-06-05T10:41:44;23.50;99.90
17170;DHT22;8700;48.222;16.342;2023-06-05T10:45:08;23.80;99.90
17170;DHT22;8700;48.222;16.342;2023-06-05T10:52:39;23.80;99.90
17170;DHT22;8700;48.222;16.342;2023-06-05T10:56:01;23.60;99.90
17170;DHT22;8700;48.222;16.342;2023-06-05T10:59:27;23.40;99.90
17170;DHT22;8700;48.222;16.342;2023-06-05T11:02:53;23.50;99.90
17170;DHT22;8700;48.222;16.342;2023-06-05T11:06:16;23.60;99.90
17170;DHT22;8700;48.222;16.342;2023-06-05T11:10:05;24.00;99.90
17170;DHT22;8700;48.222;16.342;2023-06-05T11:13:54;24.40;99.90
17170;DHT22;8700;48.222;16.342;2023-06-05T11:17:29;24.00;99.90
17170;DHT22;8700;48.222;16.342;2023-06-05T11:20:52;24.00;99.90
17170;DHT22;8700;48.222;16.342;2023-06-05T11:24:18;24.00;99.90
17170;DHT22;8700;48.222;16.342;2023-06-05T11:27:41;24.30;99.90
17170;DHT22;8700;48.222;16.342;2023-06-05T11:31:04;24.30;99.90
17170;DHT22;8700;48.222;16.342;2023-06-05T11:34:26;24.40;99.90
17170;DHT22;8700;48.222;16.342;2023-06-05T11:38:07;24.50;99.90
17170;DHT22;8700;48.222;16.342;2023-06-05T11:41:29;24.40;99.90
17170;DHT22;8700;48.222;16.342;2023-06-05T11:44:50;24.50;99.90
17170;DHT22;8700;48.222;16.342;2023-06-05T11:48:13;24.50;99.90
17170;DHT22;8700;48.222;16.342;2023-06-05T11:51:35;25.00;99.90
17170;DHT22;8700;48.222;16.342;2023-06-05T11:55:11;24.90;99.90
17170;DHT22;8700;48.222;16.342;2023-06-05T11:58:37;24.80;99.90
17170;DHT22;8700;48.222;16.342;2023-06-05T12:02:00;24.90;99.90
17170;DHT22;8700;48.222;16.342;2023-06-05T12:05:24;25.20;99.90
17170;DHT22;8700;48.222;16.342;2023-06-05T12:08:50;24.80;99.90
17170;DHT22;8700;48.222;16.342;2023-06-05T12:12:16;24.60;99.90
17170;DHT22;8700;48.222;16.342;2023-06-05T12:15:38;24.20;99.90
17170;DHT22;8700;48.222;16.342;2023-06-05T12:19:01;24.40;99.90
17170;DHT22;8700;48.222;16.342;2023-06-05T12:22:23;24.20;99.90
17170;DHT22;8700;48.222;16.342;2023-06-05T12:25:44;24.40;99.90
17170;DHT22;8700;48.222;16.342;2023-06-05T12:29:07;24.40;99.90
17170;DHT22;8700;48.222;16.342;2023-06-05T12:32:28;24.00;99.90
17170;DHT22;8700;48.222;16.342;2023-06-05T12:36:03;24.10;99.90
17170;DHT22;8700;48.222;16.342;2023-06-05T12:39:24;24.20;99.90
17170;DHT22;8700;48.222;16.342;2023-06-05T12:42:47;24.50;99.90
17170;DHT22;8700;48.222;16.342;2023-06-05T12:46:11;24.60;99.90
17170;DHT22;8700;48.222;16.342;2023-06-05T12:49:34;24.60;99.90
17170;DHT22;8700;48.222;16.342;2023-06-05T12:52:55;24.00;99.90
17170;DHT22;8700;48.222;16.342;2023-06-05T12:56:18;23.70;99.90
17170;DHT22;8700;48.222;16.342;2023-06-05T12:59:43;23.80;99.90
17170;DHT22;8700;48.222;16.342;2023-06-05T13:03:06;24.00;99.90
17170;DHT22;8700;48.222;16.342;2023-06-05T13:06:28;24.50;99.90
17170;DHT22;8700;48.222;16.342;2023-06-05T13:09:53;24.40;99.90
17170;DHT22;8700;48.222;16.342;2023-06-05T13:13:15;24.50;99.90
17170;DHT22;8700;48.222;16.342;2023-06-05T13:16:37;24.10;99.90
17170;DHT22;8700;48.222;16.342;2023-06-05T13:19:59;24.20;99.90
17170;DHT22;8700;48.222;16.342;2023-06-05T13:23:21;24.40;99.90
17170;DHT22;8700;48.222;16.342;2023-06-05T13:26:42;24.10;99.90
17170;DHT22;8700;48.222;16.342;2023-06-05T13:30:04;23.60;99.90
17170;DHT22;8700;48.222;16.342;2023-06-05T13:33:26;23.40;99.90
17170;DHT22;8700;48.222;16.342;2023-06-05T13:36:49;23.40;99.90
17170;DHT22;8700;48.222;16.342;2023-06-05T13:40:13;23.40;99.90
17170;DHT22;8700;48.222;16.342;2023-06-05T13:43:35;23.60;99.90
17170;DHT22;8700;48.222;16.342;2023-06-05T13:46:56;23.70;99.90
17170;DHT22;8700;48.222;16.342;2023-06-05T13:50:18;23.70;99.90
17170;DHT22;8700;48.222;16.342;2023-06-05T13:53:41;23.40;99.90
17170;DHT22;8700;48.222;16.342;2023-06-05T13:57:02;23.10;99.90
17170;DHT22;8700;48.222;16.342;2023-06-05T14:00:24;23.50;99.90
17170;DHT22;8700;48.222;16.342;2023-06-05T14:03:45;23.90;99.90
17170;DHT22;8700;48.222;16.342;2023-06-05T14:07:12;24.30;99.90
17170;DHT22;8700;48.222;16.342;2023-06-05T14:10:35;23.80;99.90
17170;DHT22;8700;48.222;16.342;2023-06-05T14:13:56;23.60;99.90
17170;DHT22;8700;48.222;16.342;2023-06-05T14:17:18;24.00;99.90
17170;DHT22;8700;48.222;16.342;2023-06-05T14:20:40;23.80;99.90
17170;DHT22;8700;48.222;16.342;2023-06-05T14:24:01;23.40;99.90
17170;DHT22;8700;48.222;16.342;2023-06-05T14:27:27;23.40;99.90
17170;DHT22;8700;48.222;16.342;2023-06-05T14:30:49;23.70;99.90
17170;DHT22;8700;48.222;16.342;2023-06-05T14:34:11;23.60;99.90
17170;DHT22;8700;48.222;16.342;2023-06-05T14:37:33;23.40;99.90
17170;DHT22;8700;48.222;16.342;2023-06-05T14:40:54;23.30;99.90
17170;DHT22;8700;48.222;16.342;2023-06-05T14:44:19;23.20;99.90
17170;DHT22;8700;48.222;16.342;2023-06-05T14:47:41;23.20;99.90
17170;DHT22;8700;48.222;16.342;2023-06-05T14:51:03;23.20;99.90
17170;DHT22;8700;48.222;16.342;2023-06-05T14:54:27;23.10;99.90
17170;DHT22;8700;48.222;16.342;2023-06-05T14:57:51;22.90;99.90
17170;DHT22;8700;48.222;16.342;2023-06-05T15:01:14;22.90;99.90
17170;DHT22;8700;48.222;16.342;2023-06-05T15:04:36;23.00;99.90
17170;DHT22;8700;48.222;16.342;2023-06-05T15:07:58;22.90;99.90
17170;DHT22;8700;48.222;16.342;2023-06-05T15:11:23;22.90;99.90
17170;DHT22;8700;48.222;16.342;2023-06-05T15:14:45;23.00;99.90
17170;DHT22;8700;48.222;16.342;2023-06-05T15:18:08;22.80;99.90
17170;DHT22;8700;48.222;16.342;2023-06-05T15:21:30;22.20;99.90
17170;DHT22;8700;48.222;16.342;2023-06-05T15:24:55;22.00;99.90
17170;DHT22;8700;48.222;16.342;2023-06-05T15:28:20;21.70;99.90
17170;DHT22;8700;48.222;16.342;2023-06-05T15:31:42;21.60;99.90
17170;DHT22;8700;48.222;16.342;2023-06-05T15:35:08;21.60;99.90
17170;DHT22;8700;48.222;16.342;2023-06-05T15:38:30;21.60;99.90
17170;DHT22;8700;48.222;16.342;2023-06-05T15:41:55;21.50;99.90
17170;DHT22;8700;48.222;16.342;2023-06-05T15:45:17;21.30;99.90
17170;DHT22;8700;48.222;16.342;2023-06-05T15:48:38;21.20;99.90
17170;DHT22;8700;48.222;16.342;2023-06-05T15:52:01;21.10;99.90
17170;DHT22;8700;48.222;16.342;2023-06-05T15:55:23;21.10;99.90
17170;DHT22;8700;48.222;16.342;2023-06-05T15:58:48;20.80;99.90
17170;DHT22;8700;48.222;16.342;2023-06-05T16:02:10;20.40;99.90
17170;DHT22;8700;48.222;16.342;2023-06-05T16:05:32;20.20;99.90
17170;DHT22;8700;48.222;16.342;2023-06-05T16:09:00;20.10;99.90
17170;DHT22;8700;48.222;16.342;2023-06-05T16:12:24;20.30;99.90
17170;DHT22;8700;48.222;16.342;2023-06-05T16:15:46;20.30;99.90
17170;DHT22;8700;48.222;16.342;2023-06-05T16:19:08;20.30;99.90
17170;DHT22;8700;48.222;16.342;2023-06-05T16:22:31;20.50;99.90
17170;DHT22;8700;48.222;16.342;2023-06-05T16:25:54;20.60;99.90
17170;DHT22;8700;48.222;16.342;2023-06-05T16:29:18;20.50;99.90
17170;DHT22;8700;48.222;16.342;2023-06-05T16:32:40;20.40;99.90
17170;DHT22;8700;48.222;16.342;2023-06-05T16:36:02;20.60;99.90
17170;DHT22;8700;48.222;16.342;2023-06-05T16:39:24;20.70;99.90
17170;DHT22;8700;48.222;16.342;2023-06-05T16:42:47;20.70;99.90
17170;DHT22;8700;48.222;16.342;2023-06-05T16:46:09;20.70;99.90
17170;DHT22;8700;48.222;16.342;2023-06-05T16:49:31;20.70;99.90
17170;DHT22;8700;48.222;16.342;2023-06-05T16:52:53;20.70;99.90
17170;DHT22;8700;48.222;16.342;2023-06-05T16:56:23;20.70;99.90
17170;DHT22;8700;48.222;16.342;2023-06-05T16:59:50;20.70;99.90
17170;DHT22;8700;48.222;16.342;2023-06-05T17:03:12;20.70;99.90
17170;DHT22;8700;48.222;16.342;2023-06-05T17:06:35;20.70;99.90
17170;DHT22;8700;48.222;16.342;2023-06-05T17:09:57;20.60;99.90
17170;DHT22;8700;48.222;16.342;2023-06-05T17:13:20;20.50;99.90
17170;DHT22;8700;48.222;16.342;2023-06-05T17:16:43;20.50;99.90
17170;DHT22;8700;48.222;16.342;2023-06-05T17:20:10;20.50;99.90
17170;DHT22;8700;48.222;16.342;2023-06-05T17:23:32;20.50;99.90
17170;DHT22;8700;48.222;16.342;2023-06-05T17:26:54;20.50;99.90
17170;DHT22;8700;48.222;16.342;2023-06-05T17:30:16;20.50;99.90
17170;DHT22;8700;48.222;16.342;2023-06-05T17:33:39;20.50;99.90
17170;DHT22;8700;48.222;16.342;2023-06-05T17:37:04;20.50;99.90
17170;DHT22;8700;48.222;16.342;2023-06-05T17:40:29;20.50;99.90
17170;DHT22;8700;48.222;16.342;2023-06-05T17:43:51;20.50;99.90
17170;DHT22;8700;48.222;16.342;2023-06-05T17:47:14;20.50;99.90
17170;DHT22;8700;48.222;16.342;2023-06-05T17:50:40;20.40;99.90
17170;DHT22;8700;48.222;16.342;2023-06-05T17:54:04;20.40;99.90
17170;DHT22;8700;48.222;16.342;2023-06-05T17:57:25;20.30;99.90
17170;DHT22;8700;48.222;16.342;2023-06-05T18:00:51;20.20;99.90
17170;DHT22;8700;48.222;16.342;2023-06-05T18:04:12;20.10;99.90
17170;DHT22;8700;48.222;16.342;2023-06-05T18:07:36;20.10;99.90
17170;DHT22;8700;48.222;16.342;2023-06-05T18:10:57;20.00;99.90
17170;DHT22;8700;48.222;16.342;2023-06-05T18:14:25;19.90;99.90
17170;DHT22;8700;48.222;16.342;2023-06-05T18:17:49;20.00;99.90
17170;DHT22;8700;48.222;16.342;2023-06-05T18:21:11;20.00;99.90
17170;DHT22;8700;48.222;16.342;2023-06-05T18:24:34;20.00;99.90
17170;DHT22;8700;48.222;16.342;2023-06-05T18:27:55;19.90;99.90
17170;DHT22;8700;48.222;16.342;2023-06-05T18:31:18;19.90;99.90
17170;DHT22;8700;48.222;16.342;2023-06-05T18:34:42;19.90;99.90
17170;DHT22;8700;48.222;16.342;2023-06-05T18:38:06;19.80;99.90
17170;DHT22;8700;48.222;16.342;2023-06-05T18:41:29;19.80;99.90
17170;DHT22;8700;48.222;16.342;2023-06-05T18:44:51;19.80;99.90
17170;DHT22;8700;48.222;16.342;2023-06-05T18:48:13;19.80;99.90
17170;DHT22;8700;48.222;16.342;2023-06-05T18:51:35;19.70;99.90
17170;DHT22;8700;48.222;16.342;2023-06-05T18:54:59;19.60;99.90
17170;DHT22;8700;48.222;16.342;2023-06-05T18:58:23;19.60;99.90
17170;DHT22;8700;48.222;16.342;2023-06-05T19:01:45;19.50;99.90
17170;DHT22;8700;48.222;16.342;2023-06-05T19:05:08;19.50;99.90
17170;DHT22;8700;48.222;16.342;2023-06-05T19:08:30;19.50;99.90
17170;DHT22;8700;48.222;16.342;2023-06-05T19:11:51;19.40;99.90
17170;DHT22;8700;48.222;16.342;2023-06-05T19:15:14;19.40;99.90
17170;DHT22;8700;48.222;16.342;2023-06-05T19:18:39;19.40;99.90
17170;DHT22;8700;48.222;16.342;2023-06-05T19:22:01;19.40;99.90
17170;DHT22;8700;48.222;16.342;2023-06-05T19:25:23;19.30;99.90
17170;DHT22;8700;48.222;16.342;2023-06-05T19:28:45;19.30;99.90
17170;DHT22;8700;48.222;16.342;2023-06-05T19:32:08;19.30;99.90
17170;DHT22;8700;48.222;16.342;2023-06-05T19:35:30;19.30;99.90
17170;DHT22;8700;48.222;16.342;2023-06-05T19:38:52;19.30;99.90
17170;DHT22;8700;48.222;16.342;2023-06-05T19:42:14;19.30;99.90
17170;DHT22;8700;48.222;16.342;2023-06-05T19:45:38;19.30;99.90
17170;DHT22;8700;48.222;16.342;2023-06-05T19:49:02;19.20;99.90
17170;DHT22;8700;48.222;16.342;2023-06-05T19:52:23;19.20;99.90
17170;DHT22;8700;48.222;16.342;2023-06-05T19:55:45;19.20;99.90
17170;DHT22;8700;48.222;16.342;2023-06-05T19:59:07;19.20;99.90
17170;DHT22;8700;48.222;16.342;2023-06-05T20:02:29;19.10;99.90
17170;DHT22;8700;48.222;16.342;2023-06-05T20:10:23;18.90;99.90
17170;DHT22;8700;48.222;16.342;2023-06-05T20:13:47;18.90;99.90
17170;DHT22;8700;48.222;16.342;2023-06-05T20:17:09;18.90;99.90
17170;DHT22;8700;48.222;16.342;2023-06-05T20:20:30;18.90;99.90
17170;DHT22;8700;48.222;16.342;2023-06-05T20:23:53;18.80;99.90
17170;DHT22;8700;48.222;16.342;2023-06-05T20:27:17;18.70;99.90
17170;DHT22;8700;48.222;16.342;2023-06-05T20:30:39;18.60;99.90
17170;DHT22;8700;48.222;16.342;2023-06-05T20:34:03;18.60;99.90
17170;DHT22;8700;48.222;16.342;2023-06-05T20:37:26;18.60;99.90
17170;DHT22;8700;48.222;16.342;2023-06-05T20:40:50;18.70;99.90
17170;DHT22;8700;48.222;16.342;2023-06-05T20:44:14;18.70;99.90
17170;DHT22;8700;48.222;16.342;2023-06-05T20:47:36;18.60;99.90
17170;DHT22;8700;48.222;16.342;2023-06-05T20:50:59;18.50;99.90
17170;DHT22;8700;48.222;16.342;2023-06-05T20:54:20;18.40;99.90
17170;DHT22;8700;48.222;16.342;2023-06-05T20:57:42;18.40;99.90
17170;DHT22;8700;48.222;16.342;2023-06-05T21:01:05;18.50;99.90
17170;DHT22;8700;48.222;16.342;2023-06-05T21:04:29;18.50;99.90
17170;DHT22;8700;48.222;16.342;2023-06-05T21:07:53;18.40;99.90
17170;DHT22;8700;48.222;16.342;2023-06-05T21:11:16;18.40;99.90
17170;DHT22;8700;48.222;16.342;2023-06-05T21:14:38;18.50;99.90
17170;DHT22;8700;48.222;16.342;2023-06-05T21:18:04;18.60;99.90
17170;DHT22;8700;48.222;16.342;2023-06-05T21:21:29;18.70;99.90
17170;DHT22;8700;48.222;16.342;2023-06-05T21:24:53;18.70;99.90
17170;DHT22;8700;48.222;16.342;2023-06-05T21:28:16;18.60;99.90
17170;DHT22;8700;48.222;16.342;2023-06-05T21:31:44;18.60;99.90